Terminal Aerodrome Forecast
Issued by NWS

Home | Current Version | Previous Version | Text Only | Print | Product List | Glossary Off
Versions: 1 2 3 4 5 6 7 8 9 10 11 12

889
FTUS43 KICT 031737
TAFRSL
TAF
KRSL 031737Z 0318/0418 30014KT P6SM FEW200
     FM032300 29009KT P6SM SCT150
     FM041400 24008KT P6SM SKC=

USA.gov is the U.S. government's official web portal to all federal, state and local government web resources and services.